Time;durP1;ratioP1;P1;durP2;ratioP2;P2;SDS_P1;SDS_P2;PMS_P1;PMS_P2;Temp;Humidity;BMP_temperature;BMP_pressure;BME280_temperature;BME280_humidity;BME280_pressure;Samples;Min_cycle;Max_cycle;Signal;HPM_P1;HPM_P2
2022/05/26 00:01:04;;;;;;;12.93;3.58;;;;;;;;;;5052996;28;20094;-61
2022/05/26 00:03:31;;;;;;;14.70;3.63;;;;;;;;;;5053229;28;20481;-61
2022/05/26 00:05:58;;;;;;;21.15;3.13;;;;;;;;;;5053449;28;20028;-61
2022/05/26 00:08:24;;;;;;;17.10;2.83;;;;;;;;;;5053013;28;20033;-61
2022/05/26 00:10:50;;;;;;;18.02;3.33;;;;;;;;;;5053312;28;20501;-61
2022/05/26 00:13:16;;;;;;;19.98;3.55;;;;;;;;;;5053363;28;20025;-61
2022/05/26 00:15:42;;;;;;;23.88;3.45;;;;;;;;;;5052624;28;20025;-61
2022/05/26 00:18:08;;;;;;;21.55;3.05;;;;;;;;;;5053295;28;20021;-61
2022/05/26 00:20:34;;;;;;;24.13;3.40;;;;;;;;;;5063359;28;20397;-61
2022/05/26 00:23:01;;;;;;;20.67;2.97;;;;;;;;;;5064600;28;20028;-61
2022/05/26 00:25:27;;;;;;;20.00;3.30;;;;;;;;;;5052926;28;20032;-61
2022/05/26 00:27:53;;;;;;;20.58;3.65;;;;;;;;;;5052616;28;20025;-61
2022/05/26 00:30:19;;;;;;;20.98;3.35;;;;;;;;;;5052803;28;20025;-61
2022/05/26 00:32:45;;;;;;;24.90;3.40;;;;;;;;;;5052422;28;20043;-61
2022/05/26 00:35:12;;;;;;;16.23;3.65;;;;;;;;;;5052874;28;20100;-61
2022/05/26 00:37:38;;;;;;;18.00;3.20;;;;;;;;;;5052274;28;20032;-61
2022/05/26 00:40:06;;;;;;;9.55;2.70;;;;;;;;;;5052658;28;20029;-61
2022/05/26 00:42:32;;;;;;;16.38;3.30;;;;;;;;;;5052574;28;20408;-61
2022/05/26 00:44:58;;;;;;;20.30;3.88;;;;;;;;;;5067599;28;20044;-61
2022/05/26 00:47:25;;;;;;;20.70;2.95;;;;;;;;;;5052351;28;20057;-61
2022/05/26 00:50:04;;;;;;;13.45;3.58;;;;;;;;;;5052060;28;20021;-61
2022/05/26 00:52:30;;;;;;;18.95;2.85;;;;;;;;;;5051874;28;20112;-61
2022/05/26 00:55:00;;;;;;;16.90;3.22;;;;;;;;;;5052493;28;20024;-61
2022/05/26 00:57:38;;;;;;;17.92;3.15;;;;;;;;;;5052359;28;20040;-61
2022/05/26 01:00:09;;;;;;;16.67;3.70;;;;;;;;;;5052392;28;20424;-61
2022/05/26 01:02:55;;;;;;;15.38;3.00;;;;;;;;;;5059097;28;20032;-61
2022/05/26 01:05:23;;;;;;;11.05;2.58;;;;;;;;;;5052482;28;20500;-61
2022/05/26 01:07:50;;;;;;;20.63;3.28;;;;;;;;;;5052102;28;20486;-61
2022/05/26 01:10:16;;;;;;;13.10;3.53;;;;;;;;;;5052180;28;20025;-61
2022/05/26 01:12:42;;;;;;;16.35;2.35;;;;;;;;;;5051336;28;20100;-61
2022/05/26 01:15:15;;;;;;;13.30;2.78;;;;;;;;;;5058989;28;20032;-61
2022/05/26 01:17:59;;;;;;;18.10;3.47;;;;;;;;;;5051825;28;20029;-61
2022/05/26 01:20:39;;;;;;;14.05;2.70;;;;;;;;;;5052096;28;20389;-61
2022/05/26 01:23:29;;;;;;;15.90;3.13;;;;;;;;;;5045587;28;20408;-61
2022/05/26 01:25:59;;;;;;;11.45;2.30;;;;;;;;;;5051791;28;20033;-62
2022/05/26 01:28:40;;;;;;;12.38;2.60;;;;;;;;;;5060283;28;20074;-61
2022/05/26 01:31:12;;;;;;;10.75;2.63;;;;;;;;;;5047998;28;20032;-61
2022/05/26 01:33:44;;;;;;;23.42;3.80;;;;;;;;;;5051507;28;20503;-61
2022/05/26 01:36:36;;;;;;;16.75;2.70;;;;;;;;;;5055518;28;20025;-61
2022/05/26 01:39:08;;;;;;;11.55;2.67;;;;;;;;;;5035524;28;20037;-61
2022/05/26 01:41:43;;;;;;;12.50;2.67;;;;;;;;;;5063141;28;20504;-61
2022/05/26 01:44:17;;;;;;;17.23;2.85;;;;;;;;;;5036896;28;20037;-61
2022/05/26 01:46:44;;;;;;;15.95;3.17;;;;;;;;;;5051662;28;20064;-61
2022/05/26 01:49:31;;;;;;;16.33;2.90;;;;;;;;;;5055507;28;20021;-61
2022/05/26 01:52:12;;;;;;;20.27;3.03;;;;;;;;;;5051197;28;20032;-61
2022/05/26 01:54:50;;;;;;;18.40;3.40;;;;;;;;;;5051107;28;20029;-61
2022/05/26 01:57:20;;;;;;;19.58;3.20;;;;;;;;;;5051382;28;20067;-61
2022/05/26 01:59:49;;;;;;;19.02;3.33;;;;;;;;;;5056118;28;20082;-61
2022/05/26 02:02:36;;;;;;;16.77;3.65;;;;;;;;;;5051061;28;20032;-61
2022/05/26 02:05:04;;;;;;;20.90;3.40;;;;;;;;;;5053955;28;20033;-61
2022/05/26 02:07:46;;;;;;;19.88;5.25;;;;;;;;;;5051575;28;20082;-61
2022/05/26 02:10:25;;;;;;;18.50;3.22;;;;;;;;;;5036042;28;20037;-61
2022/05/26 02:12:56;;;;;;;20.08;3.15;;;;;;;;;;5051238;28;20028;-61
2022/05/26 02:15:32;;;;;;;17.08;3.28;;;;;;;;;;5051572;28;20035;-61
2022/05/26 02:18:02;;;;;;;18.67;3.45;;;;;;;;;;5051213;28;20114;-61
2022/05/26 02:20:33;;;;;;;11.57;3.08;;;;;;;;;;5051626;28;20123;-61
2022/05/26 02:23:05;;;;;;;13.30;3.40;;;;;;;;;;5051285;28;20033;-61
2022/05/26 02:25:33;;;;;;;19.27;2.92;;;;;;;;;;5051364;28;20033;-61
2022/05/26 02:27:59;;;;;;;17.40;3.20;;;;;;;;;;5053245;28;20021;-61
2022/05/26 02:30:30;;;;;;;19.52;3.45;;;;;;;;;;5051015;28;20061;-61
2022/05/26 02:32:57;;;;;;;17.60;4.00;;;;;;;;;;5051123;28;20047;-61
2022/05/26 02:35:26;;;;;;;18.45;3.28;;;;;;;;;;5050855;28;20401;-61
2022/05/26 02:37:54;;;;;;;24.23;3.80;;;;;;;;;;5046435;28;20022;-61
2022/05/26 02:40:21;;;;;;;15.63;3.22;;;;;;;;;;5050719;28;20477;-61
2022/05/26 02:42:49;;;;;;;21.83;4.00;;;;;;;;;;5049299;28;20124;-61
2022/05/26 02:45:16;;;;;;;22.20;3.67;;;;;;;;;;5054682;28;20071;-61
2022/05/26 02:47:58;;;;;;;27.33;3.85;;;;;;;;;;5057416;28;20032;-61
2022/05/26 02:50:24;;;;;;;28.20;3.50;;;;;;;;;;5048274;28;20071;-61
2022/05/26 02:52:56;;;;;;;22.98;4.30;;;;;;;;;;5053262;28;20481;-61
2022/05/26 02:55:34;;;;;;;18.38;3.10;;;;;;;;;;5053677;28;20116;-61
2022/05/26 02:58:01;;;;;;;19.13;3.22;;;;;;;;;;5052358;28;20382;-62
2022/05/26 03:00:31;;;;;;;16.92;3.15;;;;;;;;;;5054764;28;20041;-61
2022/05/26 03:03:02;;;;;;;20.67;3.28;;;;;;;;;;5054128;28;20057;-61
2022/05/26 03:05:31;;;;;;;23.55;3.85;;;;;;;;;;5054840;28;20039;-61
2022/05/26 03:08:01;;;;;;;18.15;3.22;;;;;;;;;;5054161;28;20065;-61
2022/05/26 03:10:28;;;;;;;14.38;2.85;;;;;;;;;;5054230;28;20033;-61
2022/05/26 03:12:55;;;;;;;15.20;3.83;;;;;;;;;;5054288;28;20055;-61
2022/05/26 03:15:21;;;;;;;29.85;4.00;;;;;;;;;;5054281;28;20021;-61
2022/05/26 03:17:47;;;;;;;12.02;3.03;;;;;;;;;;5054575;28;20116;-61
2022/05/26 03:20:14;;;;;;;18.27;4.20;;;;;;;;;;5053326;28;20045;-61
2022/05/26 03:22:40;;;;;;;14.68;3.35;;;;;;;;;;5054357;28;20032;-61
2022/05/26 03:25:07;;;;;;;13.02;2.80;;;;;;;;;;5063263;28;20055;-61
2022/05/26 03:27:33;;;;;;;19.17;3.65;;;;;;;;;;5055577;28;20021;-61
2022/05/26 03:29:59;;;;;;;15.48;3.47;;;;;;;;;;5056082;28;20036;-61
2022/05/26 03:32:25;;;;;;;16.15;3.10;;;;;;;;;;5058954;28;20043;-61
2022/05/26 03:43:07;;;;;;;11.65;2.88;;;;;;;;;;5053550;28;20108;-61
2022/05/26 03:45:34;;;;;;;9.48;2.70;;;;;;;;;;5053788;28;20021;-61
2022/05/26 03:48:00;;;;;;;11.93;2.75;;;;;;;;;;5061383;28;20024;-61
2022/05/26 03:50:27;;;;;;;15.00;2.65;;;;;;;;;;5052182;28;20037;-61
2022/05/26 03:52:53;;;;;;;10.07;2.15;;;;;;;;;;5048672;28;20371;-61
2022/05/26 03:55:20;;;;;;;11.40;2.50;;;;;;;;;;5053113;28;20060;-61
2022/05/26 03:57:46;;;;;;;10.52;2.40;;;;;;;;;;5052836;28;20420;-61
2022/05/26 04:00:14;;;;;;;12.38;2.33;;;;;;;;;;5052018;28;20024;-61
2022/05/26 04:02:41;;;;;;;8.30;2.20;;;;;;;;;;5052886;28;20031;-61
2022/05/26 04:05:07;;;;;;;18.58;3.83;;;;;;;;;;5052731;28;20025;-61
2022/05/26 04:07:34;;;;;;;16.33;2.50;;;;;;;;;;5052643;28;20112;-61
2022/05/26 04:10:01;;;;;;;9.07;3.17;;;;;;;;;;5053197;28;20009;-61
2022/05/26 04:12:27;;;;;;;9.82;2.45;;;;;;;;;;5052827;28;20041;-61
2022/05/26 04:14:53;;;;;;;10.13;2.05;;;;;;;;;;5052781;28;20021;-61
2022/05/26 04:17:19;;;;;;;8.88;1.83;;;;;;;;;;5052263;28;20029;-61
2022/05/26 04:19:45;;;;;;;9.75;2.08;;;;;;;;;;5052832;28;20100;-61
2022/05/26 04:22:15;;;;;;;15.88;2.15;;;;;;;;;;5050128;28;20163;-61
2022/05/26 04:24:41;;;;;;;12.30;2.40;;;;;;;;;;5051004;28;20021;-61
2022/05/26 04:27:07;;;;;;;8.40;1.75;;;;;;;;;;5058786;28;20561;-61
2022/05/26 04:29:35;;;;;;;8.90;2.10;;;;;;;;;;5059457;28;20318;-61
2022/05/26 04:32:01;;;;;;;12.80;2.20;;;;;;;;;;5054608;28;20021;-61
2022/05/26 04:34:27;;;;;;;8.77;2.30;;;;;;;;;;5051523;28;20032;-61
2022/05/26 04:36:53;;;;;;;7.97;1.80;;;;;;;;;;5052174;28;20370;-61
2022/05/26 04:39:20;;;;;;;10.10;2.10;;;;;;;;;;5052789;28;20021;-61
2022/05/26 04:41:46;;;;;;;17.52;2.63;;;;;;;;;;5050548;28;20021;-61
2022/05/26 04:44:13;;;;;;;8.93;2.20;;;;;;;;;;5040701;28;20079;-61
2022/05/26 04:46:39;;;;;;;7.85;2.25;;;;;;;;;;5041996;28;20036;-61
2022/05/26 04:49:06;;;;;;;12.30;2.05;;;;;;;;;;5046866;28;20492;-61
2022/05/26 04:51:34;;;;;;;8.73;2.15;;;;;;;;;;5046614;28;20061;-61
2022/05/26 04:54:00;;;;;;;15.35;2.40;;;;;;;;;;5052674;28;20021;-61
2022/05/26 04:56:27;;;;;;;7.53;2.03;;;;;;;;;;5051616;28;20044;-61
2022/05/26 04:58:53;;;;;;;13.45;1.67;;;;;;;;;;5051684;28;20063;-61
2022/05/26 05:01:20;;;;;;;7.10;2.20;;;;;;;;;;5051672;28;20021;-61
2022/05/26 05:03:46;;;;;;;10.77;1.55;;;;;;;;;;5052293;28;20115;-61
2022/05/26 05:06:13;;;;;;;4.95;1.10;;;;;;;;;;5051730;28;20025;-61
2022/05/26 05:08:40;;;;;;;4.50;1.15;;;;;;;;;;5050527;28;20519;-61
2022/05/26 05:11:07;;;;;;;5.32;1.05;;;;;;;;;;5045550;28;20036;-61
2022/05/26 05:13:33;;;;;;;6.22;1.13;;;;;;;;;;5051533;28;20083;-61
2022/05/26 05:16:09;;;;;;;6.40;1.00;;;;;;;;;;5051653;28;20028;-61
2022/05/26 05:18:35;;;;;;;4.25;0.75;;;;;;;;;;5049027;28;20029;-61
2022/05/26 05:21:04;;;;;;;7.68;1.00;;;;;;;;;;5051211;28;20489;-61
2022/05/26 05:23:31;;;;;;;6.32;1.33;;;;;;;;;;5051048;28;20399;-61
2022/05/26 05:25:58;;;;;;;6.25;1.15;;;;;;;;;;5050909;28;20021;-61
2022/05/26 05:28:32;;;;;;;9.32;1.67;;;;;;;;;;5051496;28;20393;-61
2022/05/26 05:31:03;;;;;;;3.42;1.33;;;;;;;;;;5052495;28;20025;-61
2022/05/26 05:33:32;;;;;;;10.57;2.10;;;;;;;;;;5051016;28;20025;-61
2022/05/26 05:36:03;;;;;;;6.30;1.30;;;;;;;;;;5056118;28;20024;-61
2022/05/26 05:38:29;;;;;;;5.50;1.05;;;;;;;;;;5052025;28;20162;-61
2022/05/26 05:40:55;;;;;;;7.43;1.30;;;;;;;;;;5047483;28;21478;-61
2022/05/26 05:43:21;;;;;;;10.20;1.73;;;;;;;;;;5050087;28;20443;-61
2022/05/26 05:45:47;;;;;;;5.70;1.40;;;;;;;;;;5046651;28;20057;-61
2022/05/26 05:48:14;;;;;;;6.70;1.50;;;;;;;;;;5049014;28;20460;-61
2022/05/26 05:50:40;;;;;;;6.75;2.65;;;;;;;;;;5048896;28;20500;-61
2022/05/26 05:53:06;;;;;;;9.43;1.50;;;;;;;;;;5049837;28;20037;-61
2022/05/26 05:55:32;;;;;;;3.60;1.27;;;;;;;;;;5048740;28;20071;-61
2022/05/26 05:57:58;;;;;;;9.00;1.33;;;;;;;;;;5048348;28;20041;-61
2022/05/26 06:00:25;;;;;;;7.45;1.10;;;;;;;;;;5048614;28;20420;-61
2022/05/26 06:02:51;;;;;;;5.95;1.52;;;;;;;;;;5048840;28;20111;-61
2022/05/26 06:05:17;;;;;;;4.90;1.30;;;;;;;;;;5048857;28;20021;-61
2022/05/26 06:07:43;;;;;;;6.32;1.17;;;;;;;;;;5049147;28;20029;-61
2022/05/26 06:10:10;;;;;;;5.18;1.40;;;;;;;;;;5050132;28;20151;-61
2022/05/26 06:12:37;;;;;;;5.78;1.17;;;;;;;;;;5049170;28;20123;-61
2022/05/26 06:15:03;;;;;;;4.68;1.05;;;;;;;;;;5046933;28;20493;-61
2022/05/26 06:17:29;;;;;;;5.70;1.52;;;;;;;;;;5050326;28;20041;-61
2022/05/26 06:19:56;;;;;;;8.05;1.55;;;;;;;;;;5051867;28;20400;-61
2022/05/26 06:22:22;;;;;;;10.73;1.70;;;;;;;;;;5052339;28;20439;-61
2022/05/26 06:24:48;;;;;;;10.45;1.55;;;;;;;;;;5054053;28;20377;-61
2022/05/26 06:30:01;;;;;;;8.85;1.30;;;;;;;;;;5051477;28;20021;-61
2022/05/26 06:38:00;;;;;;;7.88;2.20;;;;;;;;;;5051236;28;20029;-61
2022/05/26 06:40:28;;;;;;;6.55;1.83;;;;;;;;;;5051938;28;20107;-61
2022/05/26 06:42:55;;;;;;;9.15;1.77;;;;;;;;;;5052720;28;20029;-61
2022/05/26 06:45:22;;;;;;;10.13;1.77;;;;;;;;;;5049782;28;20043;-61
2022/05/26 06:47:48;;;;;;;7.57;1.20;;;;;;;;;;5053626;28;20050;-61
2022/05/26 06:50:15;;;;;;;3.22;1.00;;;;;;;;;;5050356;28;20070;-61
2022/05/26 06:52:41;;;;;;;8.98;1.33;;;;;;;;;;5054103;28;20065;-61
2022/05/26 06:55:08;;;;;;;5.97;1.48;;;;;;;;;;5053491;28;20029;-61
2022/05/26 06:57:34;;;;;;;5.45;0.95;;;;;;;;;;5046860;28;20039;-61
2022/05/26 07:00:00;;;;;;;5.28;0.95;;;;;;;;;;5052658;28;20025;-61
2022/05/26 07:02:27;;;;;;;4.57;1.15;;;;;;;;;;5051173;28;20120;-61
2022/05/26 07:04:53;;;;;;;6.15;1.15;;;;;;;;;;5051202;28;20033;-62
2022/05/26 07:07:19;;;;;;;3.78;1.10;;;;;;;;;;5050955;28;20453;-62
2022/05/26 07:09:45;;;;;;;5.30;0.85;;;;;;;;;;5050230;28;20025;-62
2022/05/26 07:12:12;;;;;;;1.38;0.65;;;;;;;;;;5048534;28;20044;-62
2022/05/26 07:14:38;;;;;;;2.53;0.70;;;;;;;;;;5047647;28;20114;-61
2022/05/26 07:17:05;;;;;;;1.20;0.73;;;;;;;;;;5051609;28;20103;-61
2022/05/26 07:19:36;;;;;;;5.47;0.82;;;;;;;;;;5051589;28;20036;-62
2022/05/26 07:22:02;;;;;;;4.05;2.28;;;;;;;;;;5049809;28;20503;-61
2022/05/26 07:24:28;;;;;;;6.05;1.27;;;;;;;;;;5051531;28;20098;-61
2022/05/26 07:26:54;;;;;;;3.72;0.93;;;;;;;;;;5051633;28;20044;-61
2022/05/26 07:29:20;;;;;;;6.57;0.98;;;;;;;;;;5052829;28;20029;-68
2022/05/26 07:31:47;;;;;;;5.05;1.10;;;;;;;;;;5052303;28;20112;-62
2022/05/26 07:34:13;;;;;;;3.05;1.17;;;;;;;;;;5053490;28;20025;-62
2022/05/26 07:42:11;;;;;;;8.10;1.15;;;;;;;;;;5050805;28;20033;-62
2022/05/26 07:44:38;;;;;;;3.63;0.80;;;;;;;;;;5045353;28;20029;-62
2022/05/26 07:47:05;;;;;;;2.00;0.95;;;;;;;;;;5052119;28;20112;-62
2022/05/26 07:49:33;;;;;;;3.33;0.95;;;;;;;;;;5052505;28;20060;-62
2022/05/26 07:52:01;;;;;;;3.72;0.82;;;;;;;;;;5068788;28;20107;-63
2022/05/26 07:54:28;;;;;;;2.17;0.77;;;;;;;;;;5046915;28;20405;-62
2022/05/26 07:56:55;;;;;;;3.88;0.70;;;;;;;;;;5052894;28;20029;-63
2022/05/26 07:59:21;;;;;;;7.85;0.90;;;;;;;;;;5050598;28;20021;-63
2022/05/26 08:01:48;;;;;;;5.85;1.05;;;;;;;;;;5043458;28;20489;-63
2022/05/26 08:04:15;;;;;;;5.85;1.15;;;;;;;;;;5051823;28;20028;-63
2022/05/26 08:06:45;;;;;;;2.78;0.77;;;;;;;;;;5074607;28;20055;-63
2022/05/26 08:09:12;;;;;;;3.90;0.80;;;;;;;;;;5053024;28;20029;-63
2022/05/26 08:11:38;;;;;;;6.05;1.02;;;;;;;;;;5052646;28;20064;-63
2022/05/26 08:14:04;;;;;;;6.90;1.10;;;;;;;;;;5055664;28;20167;-63
2022/05/26 08:16:31;;;;;;;6.18;1.50;;;;;;;;;;5051822;28;20028;-62
2022/05/26 08:18:57;;;;;;;8.30;1.30;;;;;;;;;;5051015;28;20033;-63
2022/05/26 08:21:23;;;;;;;2.53;0.80;;;;;;;;;;5053142;28;20037;-63
2022/05/26 08:23:51;;;;;;;6.40;1.08;;;;;;;;;;5060169;28;20617;-63
2022/05/26 08:26:17;;;;;;;8.50;1.25;;;;;;;;;;5050908;28;20036;-63
2022/05/26 08:28:43;;;;;;;11.43;1.50;;;;;;;;;;5047659;28;20029;-63
2022/05/26 08:31:10;;;;;;;4.95;1.10;;;;;;;;;;5051665;28;20037;-63
2022/05/26 08:33:37;;;;;;;4.80;1.17;;;;;;;;;;5055185;28;20025;-63
2022/05/26 08:36:05;;;;;;;4.60;1.23;;;;;;;;;;5049234;28;20397;-63
2022/05/26 08:38:31;;;;;;;5.10;1.23;;;;;;;;;;5048717;28;20025;-62
2022/05/26 08:40:57;;;;;;;8.32;1.63;;;;;;;;;;5047655;28;20037;-63
2022/05/26 08:43:25;;;;;;;8.38;1.30;;;;;;;;;;5044334;28;20036;-62
2022/05/26 08:45:52;;;;;;;10.18;1.50;;;;;;;;;;5043224;28;20040;-63
2022/05/26 08:48:38;;;;;;;6.15;1.60;;;;;;;;;;5046184;28;20059;-62
2022/05/26 08:51:05;;;;;;;11.70;1.58;;;;;;;;;;5045170;28;20036;-62
2022/05/26 08:53:35;;;;;;;6.22;1.38;;;;;;;;;;5048036;28;20528;-63
2022/05/26 08:56:03;;;;;;;5.10;1.92;;;;;;;;;;5041696;28;20037;-63
2022/05/26 08:58:35;;;;;;;5.93;1.42;;;;;;;;;;5044085;28;20028;-63
2022/05/26 09:01:02;;;;;;;8.02;2.30;;;;;;;;;;5047150;28;20034;-63
2022/05/26 09:03:29;;;;;;;3.97;2.35;;;;;;;;;;5046351;28;20040;-63
2022/05/26 09:06:05;;;;;;;9.65;2.05;;;;;;;;;;5041994;28;20032;-63
2022/05/26 09:14:06;;;;;;;5.10;2.08;;;;;;;;;;5048987;28;20040;-63
2022/05/26 09:16:34;;;;;;;3.75;1.80;;;;;;;;;;5051311;28;20377;-63
2022/05/26 09:19:30;;;;;;;12.30;1.85;;;;;;;;;;5044485;28;20558;-63
2022/05/26 09:21:56;;;;;;;5.00;1.63;;;;;;;;;;5043680;28;20048;-63
2022/05/26 09:24:26;;;;;;;6.22;1.67;;;;;;;;;;5045944;28;20017;-63
2022/05/26 09:26:57;;;;;;;14.52;2.15;;;;;;;;;;5043549;28;20035;-63
2022/05/26 09:29:25;;;;;;;4.95;1.65;;;;;;;;;;5049416;28;20112;-63
2022/05/26 09:31:51;;;;;;;10.32;1.75;;;;;;;;;;5048961;28;20033;-63
2022/05/26 09:34:25;;;;;;;6.28;1.90;;;;;;;;;;5043787;28;20413;-63
2022/05/26 09:36:56;;;;;;;10.05;2.05;;;;;;;;;;5050360;28;20025;-63
2022/05/26 09:39:22;;;;;;;6.13;1.77;;;;;;;;;;5048628;28;20410;-63
2022/05/26 09:41:53;;;;;;;9.57;1.73;;;;;;;;;;5049707;28;20045;-64
2022/05/26 09:44:30;;;;;;;8.82;2.05;;;;;;;;;;5049038;28;20653;-64
2022/05/26 09:46:57;;;;;;;10.13;1.70;;;;;;;;;;5049088;28;20433;-65
2022/05/26 09:49:26;;;;;;;9.82;1.92;;;;;;;;;;5042188;28;20036;-65
2022/05/26 09:52:03;;;;;;;10.90;2.00;;;;;;;;;;5037835;28;20116;-69
2022/05/26 09:54:31;;;;;;;8.35;2.10;;;;;;;;;;5043532;28;20054;-68
2022/05/26 09:56:57;;;;;;;10.10;1.85;;;;;;;;;;5045590;28;20049;-68
2022/05/26 09:59:26;;;;;;;15.02;4.00;;;;;;;;;;5051458;28;20025;-68
2022/05/26 10:01:58;;;;;;;10.43;3.33;;;;;;;;;;5047362;28;20044;-68
2022/05/26 10:04:24;;;;;;;14.02;3.58;;;;;;;;;;5047308;28;20045;-68
2022/05/26 10:07:12;;;;;;;8.55;3.72;;;;;;;;;;5051991;28;20033;-68
2022/05/26 10:09:57;;;;;;;11.02;1.40;;;;;;;;;;5052002;28;20043;-68
2022/05/26 10:12:28;;;;;;;9.98;2.05;;;;;;;;;;5052748;28;20128;-68
2022/05/26 10:15:00;;;;;;;7.45;1.75;;;;;;;;;;5048681;28;20025;-68
2022/05/26 10:17:39;;;;;;;8.50;2.05;;;;;;;;;;5080030;28;20025;-68
2022/05/26 10:20:10;;;;;;;11.05;2.33;;;;;;;;;;5050485;28;20032;-68
2022/05/26 10:22:48;;;;;;;11.15;2.45;;;;;;;;;;5050791;28;20060;-68
2022/05/26 10:25:17;;;;;;;11.82;2.05;;;;;;;;;;5051799;28;20036;-68
2022/05/26 10:27:48;;;;;;;10.23;1.70;;;;;;;;;;5050188;28;20108;-68
2022/05/26 10:30:23;;;;;;;5.10;1.67;;;;;;;;;;5047656;28;20576;-68
2022/05/26 10:32:58;;;;;;;9.02;1.70;;;;;;;;;;5063200;28;20032;-68
2022/05/26 10:35:24;;;;;;;11.60;2.05;;;;;;;;;;5049770;28;20027;-68
2022/05/26 10:38:02;;;;;;;7.28;1.77;;;;;;;;;;5052443;28;20098;-68
2022/05/26 10:40:52;;;;;;;6.50;1.95;;;;;;;;;;5044033;28;21588;-68
2022/05/26 10:43:21;;;;;;;6.88;2.10;;;;;;;;;;5052700;28;20027;-68
2022/05/26 10:45:48;;;;;;;7.57;2.33;;;;;;;;;;5044923;28;20863;-68
2022/05/26 10:48:20;;;;;;;6.72;2.10;;;;;;;;;;5074310;28;20486;-68
2022/05/26 10:50:59;;;;;;;6.95;1.98;;;;;;;;;;5047249;28;20033;-68
2022/05/26 10:53:28;;;;;;;7.75;2.13;;;;;;;;;;5047881;28;20033;-68
2022/05/26 10:55:54;;;;;;;8.60;1.90;;;;;;;;;;5051699;28;20104;-68
2022/05/26 10:58:26;;;;;;;5.50;1.58;;;;;;;;;;5045694;28;20501;-67
2022/05/26 11:00:57;;;;;;;6.22;1.83;;;;;;;;;;5050400;28;20037;-68
2022/05/26 11:03:28;;;;;;;11.38;1.58;;;;;;;;;;5058773;28;20512;-68
2022/05/26 11:06:20;;;;;;;7.28;1.77;;;;;;;;;;5051995;28;20104;-68
2022/05/26 11:08:49;;;;;;;8.45;1.50;;;;;;;;;;5043902;28;20691;-68
2022/05/26 11:11:28;;;;;;;6.55;1.65;;;;;;;;;;5047457;28;20037;-66
2022/05/26 11:13:54;;;;;;;6.03;2.72;;;;;;;;;;5050388;28;20044;-71
2022/05/26 11:19:32;;;;;;;9.35;1.65;;;;;;;;;;5054986;28;20090;-66
2022/05/26 11:21:59;;;;;;;3.17;1.33;;;;;;;;;;5044274;28;20043;-67
2022/05/26 11:24:25;;;;;;;8.05;1.40;;;;;;;;;;5048062;28;20032;-67
2022/05/26 11:26:56;;;;;;;2.78;1.08;;;;;;;;;;5050432;28;20408;-67
2022/05/26 11:29:36;;;;;;;7.75;1.67;;;;;;;;;;5050736;28;20072;-66
2022/05/26 11:38:08;;;;;;;6.00;1.20;;;;;;;;;;5046430;28;20041;-66
2022/05/26 11:40:54;;;;;;;3.80;1.00;;;;;;;;;;5047151;28;20386;-66
2022/05/26 11:43:25;;;;;;;7.40;1.38;;;;;;;;;;5048823;28;20108;-66
2022/05/26 11:45:52;;;;;;;5.47;1.35;;;;;;;;;;5048892;28;20427;-66
2022/05/26 11:48:30;;;;;;;5.90;1.20;;;;;;;;;;5050893;28;20158;-66
2022/05/26 11:51:04;;;;;;;4.47;1.20;;;;;;;;;;5049809;28;20473;-67
2022/05/26 11:53:38;;;;;;;5.28;1.33;;;;;;;;;;5058614;28;20104;-66
2022/05/26 11:56:25;;;;;;;3.90;1.65;;;;;;;;;;5049249;28;20044;-66
2022/05/26 11:59:12;;;;;;;5.00;1.50;;;;;;;;;;5050835;28;20451;-66
2022/05/26 12:01:38;;;;;;;4.72;1.23;;;;;;;;;;5054213;28;20036;-66
2022/05/26 12:04:24;;;;;;;5.13;1.23;;;;;;;;;;5051300;28;20025;-66
2022/05/26 12:07:01;;;;;;;6.75;1.20;;;;;;;;;;5049016;28;20392;-66
2022/05/26 12:09:27;;;;;;;5.43;1.02;;;;;;;;;;5048375;28;20037;-66
2022/05/26 12:12:06;;;;;;;2.95;1.20;;;;;;;;;;5050923;28;20087;-66
2022/05/26 12:14:42;;;;;;;4.00;1.20;;;;;;;;;;5051329;28;20029;-66
2022/05/26 12:17:40;;;;;;;4.53;1.02;;;;;;;;;;5050009;28;20051;-66
2022/05/26 12:20:13;;;;;;;5.22;1.15;;;;;;;;;;5007951;28;20128;-66
2022/05/26 12:22:41;;;;;;;1.95;0.82;;;;;;;;;;5010564;28;20041;-66
2022/05/26 12:25:25;;;;;;;3.10;1.20;;;;;;;;;;5004669;28;20042;-66
2022/05/26 12:27:53;;;;;;;2.78;0.82;;;;;;;;;;5000618;28;20578;-66
2022/05/26 12:30:39;;;;;;;4.22;0.80;;;;;;;;;;5006037;28;20030;-66
2022/05/26 12:33:14;;;;;;;1.40;0.90;;;;;;;;;;5008284;28;20123;-66
2022/05/26 12:35:43;;;;;;;2.95;0.98;;;;;;;;;;5010764;28;20060;-65
2022/05/26 12:38:15;;;;;;;4.00;0.85;;;;;;;;;;5009571;28;20022;-66
2022/05/26 12:40:46;;;;;;;1.60;0.77;;;;;;;;;;5006457;28;20034;-66
2022/05/26 12:43:24;;;;;;;4.95;1.27;;;;;;;;;;5005023;28;20068;-66
2022/05/26 12:45:57;;;;;;;3.80;1.10;;;;;;;;;;5003705;28;20588;-66
2022/05/26 12:48:35;;;;;;;1.23;0.68;;;;;;;;;;4993491;28;20050;-66
2022/05/26 12:51:11;;;;;;;2.00;0.88;;;;;;;;;;4998355;28;20589;-66
2022/05/26 12:53:39;;;;;;;3.35;0.73;;;;;;;;;;4999223;28;20038;-66
2022/05/26 12:56:10;;;;;;;1.95;0.90;;;;;;;;;;5032946;28;20028;-66
2022/05/26 12:58:38;;;;;;;3.47;1.10;;;;;;;;;;5044763;28;20084;-66
2022/05/26 13:01:06;;;;;;;2.95;0.80;;;;;;;;;;5047615;28;20520;-66
2022/05/26 13:03:43;;;;;;;2.33;0.90;;;;;;;;;;5047364;28;20116;-66
2022/05/26 13:06:30;;;;;;;1.85;0.70;;;;;;;;;;5050181;28;20040;-66
2022/05/26 13:09:06;;;;;;;4.03;1.17;;;;;;;;;;5043162;28;20124;-66
2022/05/26 13:11:42;;;;;;;3.20;0.93;;;;;;;;;;5040782;28;20030;-66
2022/05/26 13:14:15;;;;;;;2.22;0.80;;;;;;;;;;5049244;28;20028;-66
2022/05/26 13:16:42;;;;;;;5.25;1.27;;;;;;;;;;5048333;28;20033;-66
2022/05/26 13:19:08;;;;;;;2.92;1.17;;;;;;;;;;5047380;28;20035;-66
2022/05/26 13:21:34;;;;;;;1.60;0.82;;;;;;;;;;5049733;28;20040;-66
2022/05/26 13:24:00;;;;;;;2.25;0.85;;;;;;;;;;5041677;28;20116;-66
2022/05/26 13:26:26;;;;;;;5.68;1.02;;;;;;;;;;5041766;28;20401;-66
2022/05/26 13:28:54;;;;;;;5.03;1.27;;;;;;;;;;5038816;28;20021;-66
2022/05/26 13:34:07;;;;;;;4.03;1.00;;;;;;;;;;5042464;28;20509;-66
2022/05/26 13:36:33;;;;;;;2.45;0.90;;;;;;;;;;5043863;28;20036;-66
2022/05/26 13:39:11;;;;;;;7.10;1.20;;;;;;;;;;5045064;28;20020;-66
2022/05/26 13:41:38;;;;;;;6.13;1.13;;;;;;;;;;5046775;28;20029;-66
2022/05/26 13:44:06;;;;;;;11.30;1.48;;;;;;;;;;5040009;28;20037;-66
2022/05/26 13:46:40;;;;;;;4.53;1.10;;;;;;;;;;5034266;28;20099;-66
2022/05/26 13:49:19;;;;;;;4.55;1.00;;;;;;;;;;5045056;28;20037;-66
2022/05/26 13:51:47;;;;;;;5.45;1.13;;;;;;;;;;5041344;28;20032;-66
2022/05/26 13:54:13;;;;;;;7.75;1.50;;;;;;;;;;5041940;28;20025;-66
2022/05/26 13:56:39;;;;;;;4.63;1.45;;;;;;;;;;5042057;28;20033;-66
2022/05/26 13:59:10;;;;;;;7.20;1.00;;;;;;;;;;5046081;28;20029;-66
2022/05/26 14:01:40;;;;;;;4.28;1.20;;;;;;;;;;5041847;28;20068;-66
2022/05/26 14:04:07;;;;;;;6.05;1.42;;;;;;;;;;5044969;28;20020;-66
2022/05/26 14:06:34;;;;;;;5.32;1.58;;;;;;;;;;5045790;28;20944;-66
2022/05/26 14:09:01;;;;;;;5.13;1.35;;;;;;;;;;5038313;28;20513;-66
2022/05/26 14:11:38;;;;;;;7.70;1.73;;;;;;;;;;5036637;28;20044;-66
2022/05/26 14:14:23;;;;;;;3.88;1.30;;;;;;;;;;5032122;28;20021;-66
2022/05/26 14:16:50;;;;;;;7.80;1.25;;;;;;;;;;5044645;28;20504;-66
2022/05/26 14:19:20;;;;;;;5.50;1.20;;;;;;;;;;5051046;28;20013;-66
2022/05/26 14:21:50;;;;;;;8.85;1.33;;;;;;;;;;5045259;28;20025;-66
2022/05/26 14:24:25;;;;;;;10.15;2.25;;;;;;;;;;5038354;28;20116;-66
2022/05/26 14:27:18;;;;;;;7.63;1.50;;;;;;;;;;5041951;28;20052;-66
2022/05/26 14:29:45;;;;;;;8.05;1.65;;;;;;;;;;5044210;28;20079;-65
2022/05/26 14:32:17;;;;;;;10.07;2.28;;;;;;;;;;5045812;28;20032;-66
2022/05/26 14:34:43;;;;;;;7.85;1.83;;;;;;;;;;5045339;28;20564;-65
2022/05/26 14:37:09;;;;;;;8.00;1.60;;;;;;;;;;5047782;28;20013;-66
2022/05/26 14:39:36;;;;;;;8.10;1.67;;;;;;;;;;5049555;28;20053;-66
2022/05/26 14:42:04;;;;;;;8.40;1.80;;;;;;;;;;5049836;28;20028;-66
2022/05/26 14:44:31;;;;;;;13.25;3.00;;;;;;;;;;5054382;28;20095;-66
2022/05/26 14:46:57;;;;;;;12.02;2.30;;;;;;;;;;5054813;28;20040;-66
2022/05/26 14:49:23;;;;;;;13.00;2.55;;;;;;;;;;5054592;28;20032;-66
2022/05/26 14:51:49;;;;;;;10.80;2.40;;;;;;;;;;5053943;28;20144;-66
2022/05/26 14:57:02;;;;;;;13.15;3.08;;;;;;;;;;5052728;28;20048;-66
2022/05/26 14:59:29;;;;;;;12.50;2.80;;;;;;;;;;5053980;28;20029;-66
2022/05/26 15:01:55;;;;;;;16.38;3.38;;;;;;;;;;5064927;28;20119;-66
2022/05/26 15:04:21;;;;;;;10.38;2.70;;;;;;;;;;5057989;28;20021;-66
2022/05/26 15:06:48;;;;;;;15.05;3.55;;;;;;;;;;5053787;28;20514;-66
2022/05/26 15:09:22;;;;;;;12.77;3.00;;;;;;;;;;5055888;28;20070;-66
2022/05/26 15:11:51;;;;;;;14.38;3.10;;;;;;;;;;5056764;28;20029;-66
2022/05/26 15:14:17;;;;;;;12.73;2.75;;;;;;;;;;5045744;28;20110;-66
2022/05/26 15:16:45;;;;;;;12.95;2.58;;;;;;;;;;5050703;28;20049;-66
2022/05/26 15:19:14;;;;;;;11.77;2.90;;;;;;;;;;5055524;28;20021;-66
2022/05/26 15:21:40;;;;;;;12.68;2.25;;;;;;;;;;5055085;28;20025;-66
2022/05/26 15:24:06;;;;;;;18.00;3.05;;;;;;;;;;5083640;28;20029;-66
2022/05/26 15:26:34;;;;;;;11.27;3.17;;;;;;;;;;5057389;28;20031;-65
2022/05/26 15:29:00;;;;;;;16.17;3.10;;;;;;;;;;5052561;28;20021;-66
2022/05/26 15:31:26;;;;;;;24.35;4.93;;;;;;;;;;5054708;28;20159;-65
2022/05/26 15:33:52;;;;;;;17.02;4.15;;;;;;;;;;5048841;28;20024;-65
2022/05/26 15:36:20;;;;;;;23.17;4.70;;;;;;;;;;5047193;28;20034;-65